Time;durP1;ratioP1;P1;durP2;ratioP2;P2;SDS_P1;SDS_P2;PMS_P1;PMS_P2;Temp;Humidity;BMP_temperature;BMP_pressure;BME280_temperature;BME280_humidity;BME280_pressure;Samples;Min_cycle;Max_cycle;Signal;HPM_P1;HPM_P2
2021/05/07 00:01:17;;;;;;;;;;;;;;;12.95;52.82;100230.27;1757224;81;20243;-63
2021/05/07 00:03:50;;;;;;;;;;;;;;;12.98;52.86;100230.45;1790715;79;20226;-63
2021/05/07 00:06:22;;;;;;;;;;;;;;;12.99;52.88;100234.75;1769009;80;20295;-64
2021/05/07 00:08:54;;;;;;;;;;;;;;;13.00;52.97;100231.13;1777042;79;20229;-64
2021/05/07 00:11:28;;;;;;;;;;;;;;;13.00;52.92;100228.02;1760765;80;20235;-63
2021/05/07 00:13:59;;;;;;;;;;;;;;;13.00;52.92;100229.81;1784258;79;20229;-63
2021/05/07 00:16:31;;;;;;;;;;;;;;;12.95;52.72;100227.64;1796530;79;20229;-63
2021/05/07 00:19:08;;;;;;;;;;;;;;;12.93;52.88;100224.83;1791352;79;20251;-64
2021/05/07 00:21:41;;;;;;;;;;;;;;;12.88;53.09;100223.14;1767273;80;20254;-63
2021/05/07 00:24:14;;;;;;;;;;;;;;;12.83;53.16;100229.68;1770261;79;20236;-64
2021/05/07 00:26:46;;;;;;;;;;;;;;;12.78;53.17;100237.19;1747800;81;20252;-63
2021/05/07 00:29:18;;;;;;;;;;;;;;;12.75;53.34;100236.67;1759829;81;20633;-63
2021/05/07 00:31:50;;;;;;;;;;;;;;;12.71;53.65;100240.08;1748301;81;20159;-63
2021/05/07 00:34:22;;;;;;;;;;;;;;;12.68;53.72;100238.25;1758460;81;20234;-64
2021/05/07 00:36:54;;;;;;;;;;;;;;;12.64;53.99;100238.19;1766013;79;20866;-63
2021/05/07 00:39:26;;;;;;;;;;;;;;;12.59;54.23;100230.77;1746564;80;20239;-67
2021/05/07 00:42:03;;;;;;;;;;;;;;;12.56;54.25;100232.37;1750132;79;20178;-63
2021/05/07 00:44:34;;;;;;;;;;;;;;;12.51;54.25;100231.19;1752224;80;20232;-63
2021/05/07 00:47:07;;;;;;;;;;;;;;;12.45;54.29;100237.84;1770620;80;20176;-63
2021/05/07 00:49:40;;;;;;;;;;;;;;;12.41;54.52;100243.55;1756401;80;20237;-64
2021/05/07 00:52:13;;;;;;;;;;;;;;;12.35;54.63;100249.37;1763326;79;20227;-64
2021/05/07 00:54:46;;;;;;;;;;;;;;;12.28;54.79;100254.87;1755485;81;20620;-64
2021/05/07 00:57:18;;;;;;;;;;;;;;;12.24;55.21;100251.73;1748657;81;20314;-64
2021/05/07 00:59:50;;;;;;;;;;;;;;;12.20;55.64;100257.42;1751387;80;20298;-64
2021/05/07 01:02:22;;;;;;;;;;;;;;;12.14;55.96;100261.44;1749647;81;20271;-63
2021/05/07 01:04:56;;;;;;;;;;;;;;;12.12;56.43;100260.77;1770074;80;20236;-64
2021/05/07 01:07:28;;;;;;;;;;;;;;;12.11;56.47;100262.56;1744889;80;20224;-64
2021/05/07 01:10:03;;;;;;;;;;;;;;;12.06;56.67;100264.79;1786291;79;20613;-63
2021/05/07 01:12:37;;;;;;;;;;;;;;;12.04;56.97;100264.59;1804991;79;20611;-63
2021/05/07 01:15:13;;;;;;;;;;;;;;;11.99;56.75;100265.03;1783611;79;20186;-63
2021/05/07 01:17:48;;;;;;;;;;;;;;;11.95;56.45;100272.86;1764517;81;20211;-64
2021/05/07 01:20:23;;;;;;;;;;;;;;;11.91;56.71;100262.80;1792599;79;20224;-63
2021/05/07 01:22:57;;;;;;;;;;;;;;;11.88;56.80;100268.33;1804870;79;20165;-63
2021/05/07 01:25:31;;;;;;;;;;;;;;;11.84;56.75;100265.66;1785637;79;20285;-64
2021/05/07 01:28:05;;;;;;;;;;;;;;;11.82;56.75;100268.91;1779629;79;20214;-63
2021/05/07 01:30:41;;;;;;;;;;;;;;;11.80;56.79;100270.35;1735735;80;20235;-63
2021/05/07 01:33:17;;;;;;;;;;;;;;;11.79;56.92;100277.06;1798071;79;20276;-64
2021/05/07 01:35:53;;;;;;;;;;;;;;;11.79;57.08;100273.12;1803075;79;20177;-64
2021/05/07 01:38:25;;;;;;;;;;;;;;;11.80;57.10;100282.62;1744973;81;20569;-63
2021/05/07 01:40:57;;;;;;;;;;;;;;;11.81;57.09;100278.58;1791656;79;20222;-63
2021/05/07 01:43:33;;;;;;;;;;;;;;;11.85;57.07;100286.97;1751936;79;20284;-63
2021/05/07 01:46:08;;;;;;;;;;;;;;;11.89;57.09;100291.78;1803806;79;20177;-63
2021/05/07 01:48:41;;;;;;;;;;;;;;;11.91;57.04;100291.17;1775679;79;20244;-62
2021/05/07 01:51:14;;;;;;;;;;;;;;;11.96;57.04;100295.52;1759780;80;20195;-63
2021/05/07 01:53:47;;;;;;;;;;;;;;;12.01;56.98;100304.27;1778143;79;20176;-63
2021/05/07 01:56:19;;;;;;;;;;;;;;;12.07;56.84;100301.87;1747962;81;20165;-63
2021/05/07 01:58:54;;;;;;;;;;;;;;;12.12;56.79;100306.21;1756625;80;20308;-63
2021/05/07 02:01:26;;;;;;;;;;;;;;;12.18;56.84;100309.23;1759359;80;20668;-62
2021/05/07 02:04:00;;;;;;;;;;;;;;;12.21;56.91;100315.00;1761102;80;20255;-62
2021/05/07 02:06:33;;;;;;;;;;;;;;;12.25;57.05;100323.43;1759962;80;20176;-63
2021/05/07 02:09:06;;;;;;;;;;;;;;;12.27;57.23;100330.67;1761511;79;20225;-63
2021/05/07 02:11:39;;;;;;;;;;;;;;;12.28;57.49;100322.64;1735547;81;20628;-63
2021/05/07 02:14:11;;;;;;;;;;;;;;;12.31;57.87;100329.40;1798287;79;20296;-62
2021/05/07 02:16:43;;;;;;;;;;;;;;;12.35;58.36;100344.70;1756773;81;20231;-62
2021/05/07 02:19:15;;;;;;;;;;;;;;;12.39;58.59;100343.95;1728538;83;20230;-63
2021/05/07 02:21:47;;;;;;;;;;;;;;;12.43;58.78;100346.14;1725519;82;20237;-62
2021/05/07 02:24:19;;;;;;;;;;;;;;;12.50;59.13;100347.69;1771444;79;20616;-62
2021/05/07 02:26:51;;;;;;;;;;;;;;;12.57;59.64;100335.14;1770007;80;20227;-63
2021/05/07 02:29:24;;;;;;;;;;;;;;;12.66;59.88;100341.30;1767681;80;20417;-63
2021/05/07 02:31:56;;;;;;;;;;;;;;;12.73;60.10;100343.67;1764353;80;20195;-65
2021/05/07 02:34:28;;;;;;;;;;;;;;;12.77;60.31;100347.20;1750964;81;20216;-63
2021/05/07 02:37:00;;;;;;;;;;;;;;;12.84;60.38;100350.89;1721942;83;20209;-64
2021/05/07 02:39:34;;;;;;;;;;;;;;;12.90;60.52;100347.33;1725011;82;20204;-62
2021/05/07 02:42:06;;;;;;;;;;;;;;;12.95;60.59;100351.15;1708435;83;20247;-62
2021/05/07 02:44:38;;;;;;;;;;;;;;;13.01;60.59;100352.36;1714372;82;20246;-67
2021/05/07 02:47:10;;;;;;;;;;;;;;;13.04;60.55;100348.93;1768225;79;20249;-67
2021/05/07 02:49:44;;;;;;;;;;;;;;;13.09;60.49;100347.20;1736704;81;20233;-68
2021/05/07 02:52:16;;;;;;;;;;;;;;;13.15;60.45;100348.77;1705033;84;20228;-68
2021/05/07 02:54:50;;;;;;;;;;;;;;;13.23;60.38;100368.53;1788533;79;20225;-68
2021/05/07 02:57:22;;;;;;;;;;;;;;;13.29;60.26;100367.12;1790411;79;20661;-68
2021/05/07 02:59:54;;;;;;;;;;;;;;;13.37;60.06;100365.89;1785311;79;20617;-67
2021/05/07 03:02:26;;;;;;;;;;;;;;;13.47;59.94;100367.44;1735574;81;20231;-67
2021/05/07 03:04:59;;;;;;;;;;;;;;;13.65;59.81;100378.44;1771973;79;20238;-67
2021/05/07 03:07:31;;;;;;;;;;;;;;;13.84;59.57;100371.19;1767594;81;20318;-68
2021/05/07 03:10:04;;;;;;;;;;;;;;;14.08;59.08;100371.83;1756942;79;20265;-68
2021/05/07 03:12:37;;;;;;;;;;;;;;;14.29;58.58;100376.71;1746899;81;20665;-69
2021/05/07 03:15:10;;;;;;;;;;;;;;;14.45;58.16;100374.21;1757016;80;20233;-72
2021/05/07 03:17:43;;;;;;;;;;;;;;;14.60;57.82;100375.24;1761725;79;20157;-71
2021/05/07 03:20:17;;;;;;;;;;;;;;;14.71;57.51;100377.61;1772255;79;20264;-72
2021/05/07 03:22:49;;;;;;;;;;;;;;;14.81;57.19;100390.97;1767897;80;20175;-72
2021/05/07 03:25:21;;;;;;;;;;;;;;;14.87;56.89;100396.11;1772981;80;20203;-70
2021/05/07 03:27:53;;;;;;;;;;;;;;;14.93;56.63;100399.89;1771000;80;20227;-69
2021/05/07 03:30:25;;;;;;;;;;;;;;;14.99;56.57;100392.19;1774137;79;20574;-71
2021/05/07 03:32:57;;;;;;;;;;;;;;;15.04;56.36;100390.39;1774465;79;20260;-70
2021/05/07 03:35:30;;;;;;;;;;;;;;;15.06;56.27;100389.73;1758940;79;20167;-70
2021/05/07 03:38:03;;;;;;;;;;;;;;;15.07;56.10;100388.75;1733017;81;20236;-70
2021/05/07 03:40:35;;;;;;;;;;;;;;;15.05;56.12;100396.80;1769715;80;20273;-71
2021/05/07 03:43:07;;;;;;;;;;;;;;;15.10;56.12;100402.91;1764394;80;20221;-71
2021/05/07 03:45:39;;;;;;;;;;;;;;;15.20;55.86;100401.80;1769547;81;20258;-72
2021/05/07 03:48:16;;;;;;;;;;;;;;;15.33;55.60;100407.41;1734654;82;20261;-71
2021/05/07 03:50:48;;;;;;;;;;;;;;;15.51;55.28;100413.90;1722538;83;20638;-71
2021/05/07 03:53:20;;;;;;;;;;;;;;;15.65;54.89;100422.48;1765564;79;20252;-72
2021/05/07 03:55:54;;;;;;;;;;;;;;;15.88;54.60;100425.30;1762782;81;20259;-72
2021/05/07 03:58:26;;;;;;;;;;;;;;;16.32;53.97;100414.66;1736905;80;20230;-72
2021/05/07 04:00:58;;;;;;;;;;;;;;;16.58;52.84;100415.27;1768669;80;20238;-73
2021/05/07 04:03:30;;;;;;;;;;;;;;;16.62;52.36;100413.92;1751227;79;20162;-72
2021/05/07 04:06:02;;;;;;;;;;;;;;;16.62;52.28;100423.17;1778270;79;20237;-70
2021/05/07 04:08:37;;;;;;;;;;;;;;;16.66;52.01;100411.78;1741262;81;20233;-72
2021/05/07 04:11:17;;;;;;;;;;;;;;;16.72;51.84;100421.16;1770121;80;20295;-73
2021/05/07 04:13:42;;;;;;;;;;;;;;;16.84;51.62;100429.05;1773778;80;20179;-72
2021/05/07 04:16:14;;;;;;;;;;;;;;;17.12;51.00;100437.36;1771435;81;20231;-72
2021/05/07 04:18:46;;;;;;;;;;;;;;;17.51;50.35;100441.23;1768870;80;20617;-71
2021/05/07 04:21:18;;;;;;;;;;;;;;;17.60;49.80;100440.72;1754058;80;20234;-74
2021/05/07 04:23:51;;;;;;;;;;;;;;;17.61;49.55;100456.42;1769258;79;20240;-72
2021/05/07 04:26:23;;;;;;;;;;;;;;;17.73;49.38;100456.33;1755151;80;21198;-71
2021/05/07 04:28:55;;;;;;;;;;;;;;;17.78;49.13;100452.66;1797948;79;20234;-70
2021/05/07 04:31:27;;;;;;;;;;;;;;;17.78;48.98;100449.18;1781676;79;20228;-72
2021/05/07 04:33:59;;;;;;;;;;;;;;;17.74;48.95;100444.75;1741062;81;20279;-72
2021/05/07 04:36:32;;;;;;;;;;;;;;;17.69;48.98;100452.89;1740983;81;20227;-72
2021/05/07 04:39:05;;;;;;;;;;;;;;;17.66;49.00;100455.89;1769423;79;20630;-71
2021/05/07 04:41:38;;;;;;;;;;;;;;;17.64;49.31;100456.08;1798895;79;20221;-70
2021/05/07 04:44:10;;;;;;;;;;;;;;;17.59;49.27;100456.27;1775323;79;20177;-73
2021/05/07 04:46:42;;;;;;;;;;;;;;;17.51;49.23;100465.05;1735448;81;20238;-73
2021/05/07 04:49:15;;;;;;;;;;;;;;;17.43;49.49;100465.92;1713248;82;20291;-72
2021/05/07 04:51:47;;;;;;;;;;;;;;;17.35;49.75;100469.96;1735280;82;20237;-70
2021/05/07 04:54:19;;;;;;;;;;;;;;;17.23;49.87;100477.13;1723852;82;20363;-71
2021/05/07 04:56:51;;;;;;;;;;;;;;;17.05;50.12;100472.61;1736167;81;20234;-71
2021/05/07 04:59:23;;;;;;;;;;;;;;;16.94;50.59;100472.47;1722005;81;20299;-67
2021/05/07 05:01:55;;;;;;;;;;;;;;;16.95;50.81;100473.30;1727422;82;20454;-72
2021/05/07 05:04:27;;;;;;;;;;;;;;;17.00;50.88;100473.12;1727433;80;20327;-63
2021/05/07 05:07:01;;;;;;;;;;;;;;;17.13;50.90;100474.70;1738892;80;20312;-66
2021/05/07 05:09:34;;;;;;;;;;;;;;;17.35;50.60;100485.02;1735679;80;20673;-67
2021/05/07 05:12:08;;;;;;;;;;;;;;;17.56;50.19;100485.23;1732377;80;20597;-59
2021/05/07 05:14:40;;;;;;;;;;;;;;;17.73;49.73;100481.98;1771390;79;20258;-65
2021/05/07 05:17:14;;;;;;;;;;;;;;;18.02;49.14;100482.92;1759368;79;20318;-71
2021/05/07 05:19:47;;;;;;;;;;;;;;;18.27;48.25;100481.39;1770270;79;20328;-65
2021/05/07 05:22:19;;;;;;;;;;;;;;;18.38;47.66;100493.70;1764059;79;20354;-68
2021/05/07 05:24:52;;;;;;;;;;;;;;;18.55;47.20;100519.08;1764477;79;20235;-70
2021/05/07 05:27:24;;;;;;;;;;;;;;;18.97;46.50;100520.27;1776884;79;20631;-62
2021/05/07 05:29:56;;;;;;;;;;;;;;;19.47;45.77;100519.83;1759755;79;20287;-66
2021/05/07 05:32:28;;;;;;;;;;;;;;;19.88;44.44;100528.53;1770525;79;20701;-68
2021/05/07 05:35:00;;;;;;;;;;;;;;;20.39;43.20;100526.08;1779921;79;20212;-70
2021/05/07 05:37:32;;;;;;;;;;;;;;;20.93;42.29;100527.55;1780376;79;20483;-66
2021/05/07 05:40:05;;;;;;;;;;;;;;;21.54;40.80;100525.82;1764510;79;20258;-69
2021/05/07 05:42:38;;;;;;;;;;;;;;;21.96;39.66;100532.70;1731482;81;20327;-66
2021/05/07 05:45:12;;;;;;;;;;;;;;;22.70;38.76;100528.00;1710326;82;20312;-66
2021/05/07 05:47:45;;;;;;;;;;;;;;;23.17;37.88;100516.98;1722582;81;20265;-66
2021/05/07 05:50:17;;;;;;;;;;;;;;;23.19;37.39;100524.27;1700077;82;20262;-67
2021/05/07 05:52:49;;;;;;;;;;;;;;;23.22;37.16;100524.36;1734953;80;20265;-71
2021/05/07 05:55:22;;;;;;;;;;;;;;;23.24;36.91;100523.62;1733984;80;20313;-75
2021/05/07 05:57:56;;;;;;;;;;;;;;;23.38;36.92;100526.61;1775153;78;20261;-67
2021/05/07 06:00:33;;;;;;;;;;;;;;;23.55;36.37;100527.73;1774234;79;20269;-66
2021/05/07 06:03:11;;;;;;;;;;;;;;;23.73;36.27;100544.41;1778157;79;20193;-62
2021/05/07 06:05:47;;;;;;;;;;;;;;;24.04;35.88;100549.77;1774482;79;20230;-65
2021/05/07 06:08:22;;;;;;;;;;;;;;;24.46;35.31;100552.23;1764429;79;20269;-66
2021/05/07 06:10:56;;;;;;;;;;;;;;;24.61;35.12;100558.91;1777032;79;20754;-69
2021/05/07 06:13:28;;;;;;;;;;;;;;;24.58;34.58;100558.00;1767872;79;20297;-65
2021/05/07 06:16:00;;;;;;;;;;;;;;;24.59;34.63;100569.53;1764520;80;20562;-61
2021/05/07 06:18:33;;;;;;;;;;;;;;;24.52;34.82;100578.97;1770558;79;20229;-63
2021/05/07 06:21:05;;;;;;;;;;;;;;;24.24;35.15;100578.55;1771915;79;20310;-64
2021/05/07 06:23:37;;;;;;;;;;;;;;;23.81;35.94;100586.40;1754584;79;20209;-68
2021/05/07 06:26:10;;;;;;;;;;;;;;;23.19;36.89;100592.38;1776715;79;20255;-63
2021/05/07 06:28:42;;;;;;;;;;;;;;;22.60;37.91;100600.95;1777630;79;20283;-74
2021/05/07 06:31:14;;;;;;;;;;;;;;;22.02;39.12;100602.02;1766685;79;21277;-72
2021/05/07 06:33:46;;;;;;;;;;;;;;;21.58;40.19;100613.64;1767229;79;20710;-63
2021/05/07 06:36:20;;;;;;;;;;;;;;;21.23;40.95;100610.17;1765768;79;20236;-62
2021/05/07 06:38:52;;;;;;;;;;;;;;;20.89;41.64;100614.64;1758997;79;20285;-59
2021/05/07 06:41:24;;;;;;;;;;;;;;;20.62;42.16;100618.42;1754347;80;20226;-62
2021/05/07 06:43:57;;;;;;;;;;;;;;;20.40;42.67;100618.12;1764670;79;20283;-64
2021/05/07 06:46:29;;;;;;;;;;;;;;;20.02;43.35;100632.63;1780063;78;20767;-62
2021/05/07 06:49:01;;;;;;;;;;;;;;;19.70;43.92;100633.91;1774150;79;20281;-60
2021/05/07 06:51:35;;;;;;;;;;;;;;;19.36;44.61;100641.62;1782119;78;20244;-63
2021/05/07 06:54:08;;;;;;;;;;;;;;;18.91;46.22;100645.70;1769042;79;20328;-63
2021/05/07 06:56:40;;;;;;;;;;;;;;;18.51;47.58;100646.89;1777682;79;20282;-69
2021/05/07 06:59:15;;;;;;;;;;;;;;;18.08;48.71;100648.28;1748442;79;20307;-62
2021/05/07 07:01:48;;;;;;;;;;;;;;;17.73;50.31;100652.78;1777442;79;20435;-65
2021/05/07 07:04:21;;;;;;;;;;;;;;;17.46;50.91;100664.09;1695431;82;20171;-60
2021/05/07 07:06:55;;;;;;;;;;;;;;;17.28;51.83;100663.99;1695418;82;20197;-57
2021/05/07 07:09:27;;;;;;;;;;;;;;;17.08;52.73;100669.31;1755896;79;20620;-65
2021/05/07 07:11:59;;;;;;;;;;;;;;;16.87;54.33;100676.45;1765851;79;20286;-62
2021/05/07 07:14:36;;;;;;;;;;;;;;;16.72;55.64;100686.86;1760540;79;20227;-72
2021/05/07 07:17:06;;;;;;;;;;;;;;;16.58;56.68;100686.20;1780404;79;20307;-66
2021/05/07 07:19:39;;;;;;;;;;;;;;;16.45;57.75;100692.45;1782878;79;20231;-65
2021/05/07 07:22:12;;;;;;;;;;;;;;;16.35;57.99;100693.08;1770669;79;20274;-62
2021/05/07 07:24:45;;;;;;;;;;;;;;;16.30;58.37;100691.91;1776986;79;20309;-59
2021/05/07 07:27:20;;;;;;;;;;;;;;;16.30;58.97;100692.73;1752240;79;20220;-58
2021/05/07 07:29:53;;;;;;;;;;;;;;;16.36;58.48;100701.32;1762349;80;20253;-59
2021/05/07 07:32:26;;;;;;;;;;;;;;;16.44;58.81;100701.34;1771087;79;20325;-59
2021/05/07 07:35:02;;;;;;;;;;;;;;;16.55;58.01;100699.73;1779159;79;20326;-67
2021/05/07 07:37:38;;;;;;;;;;;;;;;16.67;57.19;100704.23;1778290;79;20213;-62
2021/05/07 07:40:13;;;;;;;;;;;;;;;16.74;56.73;100707.87;1774917;79;20249;-66
2021/05/07 07:42:45;;;;;;;;;;;;;;;16.72;56.33;100704.53;1774593;79;20300;-59
2021/05/07 07:45:17;;;;;;;;;;;;;;;16.74;56.03;100707.87;1778382;79;20278;-60
2021/05/07 07:47:49;;;;;;;;;;;;;;;16.71;55.84;100712.16;1777743;79;20296;-59
2021/05/07 07:50:22;;;;;;;;;;;;;;;16.65;55.42;100719.41;1788850;79;20285;-58
2021/05/07 07:52:57;;;;;;;;;;;;;;;16.59;55.76;100721.39;1753629;79;20277;-59
2021/05/07 07:55:29;;;;;;;;;;;;;;;16.43;55.72;100722.14;1750436;78;20738;-58
2021/05/07 07:58:01;;;;;;;;;;;;;;;16.35;56.45;100726.11;1766403;79;20321;-61
2021/05/07 08:00:35;;;;;;;;;;;;;;;16.27;56.80;100727.89;1769489;79;20284;-56
2021/05/07 08:03:07;;;;;;;;;;;;;;;16.19;56.81;100734.80;1773036;79;20387;-59
2021/05/07 08:05:40;;;;;;;;;;;;;;;16.16;56.54;100738.27;1775259;79;20324;-59
2021/05/07 08:08:13;;;;;;;;;;;;;;;16.15;56.38;100733.97;1765981;79;20252;-59
2021/05/07 08:10:44;;;;;;;;;;;;;;;16.11;56.59;100739.24;1771115;79;20299;-67
2021/05/07 08:13:17;;;;;;;;;;;;;;;16.11;56.83;100741.88;1776995;79;20284;-62
2021/05/07 08:15:50;;;;;;;;;;;;;;;16.18;56.78;100741.58;1781028;79;20174;-63
2021/05/07 08:18:23;;;;;;;;;;;;;;;16.34;56.32;100752.19;1779629;79;20974;-63
2021/05/07 08:20:55;;;;;;;;;;;;;;;16.54;55.70;100741.71;1777639;79;20244;-60
2021/05/07 08:23:28;;;;;;;;;;;;;;;16.77;55.76;100748.50;1765317;79;20234;-62
2021/05/07 08:26:00;;;;;;;;;;;;;;;17.00;55.00;100750.84;1767407;79;20269;-65
2021/05/07 08:28:32;;;;;;;;;;;;;;;17.25;54.19;100752.48;1766542;79;20290;-63
2021/05/07 08:31:05;;;;;;;;;;;;;;;17.47;53.65;100755.77;1765198;79;20302;-62
2021/05/07 08:33:37;;;;;;;;;;;;;;;17.70;52.88;100748.44;1761874;79;20287;-60
2021/05/07 08:36:09;;;;;;;;;;;;;;;17.88;51.85;100750.39;1730195;81;20249;-65
2021/05/07 08:38:41;;;;;;;;;;;;;;;18.02;50.93;100753.16;1703273;81;20241;-68
2021/05/07 08:41:14;;;;;;;;;;;;;;;18.15;50.10;100761.85;1721164;81;20282;-68
2021/05/07 08:43:47;;;;;;;;;;;;;;;18.29;49.49;100764.30;1769998;79;20675;-63
2021/05/07 08:46:20;;;;;;;;;;;;;;;18.54;49.33;100764.01;1760548;79;20226;-66
2021/05/07 08:48:52;;;;;;;;;;;;;;;18.88;48.65;100755.66;1778125;79;20740;-69
2021/05/07 08:51:25;;;;;;;;;;;;;;;19.28;47.74;100759.80;1772502;79;20307;-70
2021/05/07 08:53:58;;;;;;;;;;;;;;;19.59;45.70;100758.36;1765806;79;20243;-69
2021/05/07 08:56:32;;;;;;;;;;;;;;;19.76;45.11;100758.02;1771522;79;20995;-65
2021/05/07 08:59:05;;;;;;;;;;;;;;;19.89;44.67;100759.54;1765780;79;20271;-66
2021/05/07 09:01:42;;;;;;;;;;;;;;;19.99;43.94;100759.26;1769923;79;20282;-64
2021/05/07 09:04:16;;;;;;;;;;;;;;;20.12;43.66;100750.11;1769513;79;20277;-67
2021/05/07 09:06:55;;;;;;;;;;;;;;;20.24;43.25;100755.30;1773890;79;20251;-66
2021/05/07 09:09:31;;;;;;;;;;;;;;;20.36;43.22;100760.45;1778462;79;20278;-65
2021/05/07 09:12:05;;;;;;;;;;;;;;;20.47;42.71;100763.95;1758477;79;20291;-63
2021/05/07 09:14:37;;;;;;;;;;;;;;;20.55;42.41;100767.84;1771269;79;20265;-63
2021/05/07 09:17:12;;;;;;;;;;;;;;;20.58;42.48;100771.45;1715787;81;20242;-62
2021/05/07 09:19:44;;;;;;;;;;;;;;;20.63;42.23;100764.23;1765308;79;20259;-64
2021/05/07 09:22:23;;;;;;;;;;;;;;;20.62;42.31;100766.07;1762766;79;20223;-63
2021/05/07 09:25:18;;;;;;;;;;;;;;;20.69;42.37;100770.95;1778581;79;20323;-63
2021/05/07 09:27:50;;;;;;;;;;;;;;;20.74;42.06;100767.72;1763721;79;20812;-65
2021/05/07 09:30:25;;;;;;;;;;;;;;;20.73;41.54;100769.55;1751900;80;20425;-66
2021/05/07 09:32:57;;;;;;;;;;;;;;;20.77;41.43;100761.53;1773683;79;20259;-63
2021/05/07 09:35:30;;;;;;;;;;;;;;;20.87;41.20;100766.53;1764553;79;20290;-64
2021/05/07 09:38:04;;;;;;;;;;;;;;;21.15;40.56;100766.10;1758449;79;20284;-67
2021/05/07 09:40:37;;;;;;;;;;;;;;;21.50;39.48;100761.64;1750192;79;20902;-64
2021/05/07 09:43:13;;;;;;;;;;;;;;;21.84;38.97;100762.17;1733766;79;21086;-64
2021/05/07 09:45:50;;;;;;;;;;;;;;;22.11;38.29;100755.99;1771022;79;20304;-62
2021/05/07 09:48:26;;;;;;;;;;;;;;;22.17;37.89;100758.36;1764422;79;20323;-63
2021/05/07 09:51:02;;;;;;;;;;;;;;;22.12;37.79;100763.78;1767627;79;20257;-67
2021/05/07 09:53:36;;;;;;;;;;;;;;;22.23;37.59;100761.58;1777369;79;20209;-60
2021/05/07 09:56:15;;;;;;;;;;;;;;;22.25;37.37;100755.53;1765766;79;20265;-65
2021/05/07 09:58:47;;;;;;;;;;;;;;;22.09;37.67;100760.17;1762698;79;20306;-61
2021/05/07 10:01:18;;;;;;;;;;;;;;;22.11;37.23;100756.80;1777402;79;20215;-60
2021/05/07 10:03:51;;;;;;;;;;;;;;;22.11;36.85;100759.99;1772909;79;20310;-58
2021/05/07 10:06:23;;;;;;;;;;;;;;;22.05;36.89;100761.59;1746889;79;20199;-64
2021/05/07 10:08:56;;;;;;;;;;;;;;;22.12;36.55;100764.28;1774228;79;20305;-60
2021/05/07 10:11:39;;;;;;;;;;;;;;;22.12;36.12;100758.95;1780569;79;20223;-68
2021/05/07 10:14:13;;;;;;;;;;;;;;;22.00;36.25;100757.88;1773593;79;20341;-70
2021/05/07 10:16:46;;;;;;;;;;;;;;;21.99;36.55;100768.24;1765272;79;20717;-67
2021/05/07 10:19:18;;;;;;;;;;;;;;;22.02;35.26;100769.98;1765517;79;20629;-62
2021/05/07 10:21:50;;;;;;;;;;;;;;;22.02;34.69;100764.66;1771544;79;20311;-64
2021/05/07 10:24:23;;;;;;;;;;;;;;;22.03;34.85;100775.64;1764284;79;20239;-59
2021/05/07 10:26:56;;;;;;;;;;;;;;;22.02;34.29;100779.82;1778386;79;20284;-63
2021/05/07 10:29:30;;;;;;;;;;;;;;;21.97;34.17;100773.75;1776165;79;20263;-65
2021/05/07 10:32:02;;;;;;;;;;;;;;;21.91;34.54;100776.39;1774028;79;20333;-69
2021/05/07 10:34:38;;;;;;;;;;;;;;;21.75;34.16;100776.17;1780785;79;20276;-70
2021/05/07 10:37:14;;;;;;;;;;;;;;;21.62;34.72;100777.41;1777983;79;20712;-59
2021/05/07 10:39:54;;;;;;;;;;;;;;;21.70;34.92;100783.94;1768011;79;20233;-65
2021/05/07 10:42:26;;;;;;;;;;;;;;;21.83;33.40;100783.20;1773013;79;20328;-71
2021/05/07 10:44:58;;;;;;;;;;;;;;;21.94;32.65;100790.16;1774105;79;20275;-63
2021/05/07 10:47:35;;;;;;;;;;;;;;;22.00;31.91;100793.86;1778262;78;20349;-60
2021/05/07 10:50:16;;;;;;;;;;;;;;;22.00;31.68;100792.53;1775635;79;20234;-64
2021/05/07 10:52:48;;;;;;;;;;;;;;;22.01;31.23;100792.86;1730239;80;20433;-64
2021/05/07 10:55:20;;;;;;;;;;;;;;;21.93;30.77;100796.50;1699976;82;20200;-63
2021/05/07 10:57:56;;;;;;;;;;;;;;;21.84;31.23;100800.34;1743871;80;20294;-62
